Overton, Nevada Weather observations

Data are for observation ending at time listed.
 Day   Time    Ave.   Ave.  Ave.  Vector   Max.   Stn.    Total    Solar   Ave.  
  of    of     Air    Rel.  Wind   Wind    Wind   Baro.  Precip.   Rad.    Soil  
Year   Day     Temp.  Hum.  Speed  Dir.    Gust   Pres.                    Temp. 
2026   (PST)    F      %     mph   deg.    mph     mb.     in.     W/m2     F   
------------------------------------------------------------------------------
 248    1:20   86.6    10    5.4   180      9.9   964.3    0.00       0    85.5
 248    1:30   85.8    10    3.9   180      7.2   964.4    0.00       0    85.2
 248    1:40   84.3    11    2.4   197      5.2   964.4    0.00       0    84.4
 248    1:50   78.4    14    2.7   342      4.1   964.4    0.00       0    82.8
 248    2:00   76.2    15    3.2   332      5.2   964.4    0.00       0    82.0
 248    2:10   73.3    18    2.5   326      3.3   964.2    0.00       0    80.8
 248    2:20   71.4    20    2.6   325      3.2   964.0    0.00       0    80.1
 248    2:30   70.0    21    1.8   336      3.1   963.9    0.00       0    79.3
 248    2:40   69.8    21    2.0   327      3.9   963.9    0.00       0    79.2
 248    2:50   69.7    21    2.0   330      3.2   963.8    0.00       0    78.8
 248    3:00   69.0    21    1.9   322      3.7   963.7    0.00       0    78.4
 248    3:10   70.4    20    1.1   242      2.2   963.7    0.00       0    79.2
 248    3:20   70.2    20    1.4   282      2.7   963.6    0.00       0    77.8
 248    3:30   67.6    25    2.4   353      3.3   963.6    0.00       0    77.1
 248    3:40   66.8    26    2.5   343      4.2   963.6    0.00       0    76.7
 248    3:50   66.0    24    2.0   315      3.8   963.6    0.00       0    76.1
 248    4:00   66.6    24    2.6   299      4.2   963.6    0.00       0    76.2
 248    4:10   68.2    22    2.5   296      3.6   963.7    0.00       0    76.5
 248    4:20   68.1    22    2.0   295      3.4   963.7    0.00       0    76.2
 248    4:30   68.2    21    2.2   296      4.1   963.7    0.00       0    75.9
 248    4:40   66.7    24    1.5   315      3.6   963.8    0.00       0    75.2
 248    4:50   65.4    27    2.4   319      3.5   963.8    0.00       0    74.8
 248    5:00   66.3    23    1.9   297      3.9   963.9    0.00       0    75.5
 248    5:10   67.2    22    1.4   301      2.9   964.0    0.00       2    75.0
 248    5:20   66.5    23    2.6   307      3.5   964.1    0.00       4    74.7
 248    5:30   65.5    26    2.5   311      3.4   964.1    0.00       8    74.3
 248    5:40   65.9    24    2.2   302      3.2   964.3    0.00      21    74.8
 248    5:50   67.3    24    2.9   305      4.2   964.5    0.00      77    77.3
 248    6:00   67.6    24    2.1   297      3.1   964.8    0.00     108    79.9
 248    6:10   70.4    23    1.5   347      2.0   965.1    0.00     139    81.9
 248    6:20   71.7    22    1.5   345      2.4   965.3    0.00     172    83.7
 248    6:30   71.4    22    1.8   314      3.0   965.5    0.00     206    85.1
 248    6:40   73.3    19    0.9   314      2.6   965.7    0.00     240    88.1
 248    6:50   75.1    18    1.3   315      2.3   966.0    0.00     276    89.4
 248    7:00   76.0    17    1.6   322      2.4   966.4    0.00     310    91.0
 248    7:10   78.1    17    2.1   344      3.3   966.6    0.00     345    91.8
 248    7:20   78.8    15    2.0   317      3.2   966.7    0.00     379    93.6
 248    7:30   79.9    15    3.1   320      4.2   967.0    0.00     414    94.2
 248    7:40   81.1    15    2.3   336      4.4   967.2    0.00     448    95.6
 248    7:50   83.2    15    1.5   343      2.9   967.4    0.00     481    97.9
 248    8:00   83.9    14    1.7   353      3.3   967.4    0.00     513    98.8
 248    8:10   85.0    15    1.8    26      3.5   967.6    0.00     544    100.3
 248    8:20   85.6    15    1.8    10      3.5   967.7    0.00     575    100.9
 248    8:30   86.4    15    1.4    68      2.7   967.9    0.00     606    102.8
 248    8:40   86.9    14    2.0   199      3.6   968.0    0.00     636    105.7
 248    8:50   87.8    14    1.1   193      2.8   968.1    0.00     666    106.5
 248    9:00   89.0    14    1.5   108      3.7   968.2    0.00     692    106.8
 248    9:10   90.2    13    1.3   113      3.4   968.2    0.00     717    108.7
 248    9:20   91.6    12    2.7   120      6.3   968.2    0.00     740    108.5
 248    9:30   92.8    11    3.7   130      7.6   968.3    0.00     761    109.9
 248    9:40   93.4    11    3.7   124     11.9   968.3    0.00     782    110.7
 248    9:50   94.0    11    5.9   140     13.1   968.3    0.00     803    110.8
 248   10:00   94.3    11    6.7   135     12.6   968.3    0.00     821    111.1
 248   10:10   94.8    11    4.9   130     12.9   968.3    0.00     839    110.6
 248   10:20   95.6    10    4.6   138     10.2   968.2    0.00     853    110.6
 248   10:30   95.4    11    6.5   149     12.6   968.1    0.00     863    110.5
 248   10:40   95.8    10    4.8   157      8.8   968.1    0.00     874    111.5
 248   10:50   96.1    10    6.8   165     13.2   968.0    0.00     884    112.1
 248   11:00   96.4    10    6.9   175     13.5   967.8    0.00     890    112.8
 248   11:10   97.5    10    4.3   167     11.9   967.7    0.00     896    113.3
 248   11:20   97.5     9    8.4   173     15.1   967.7    0.00     900    113.6
 248   11:30   97.1     9    7.9   190     16.3   967.6    0.00     899    113.5
 248   11:40   97.9     9    5.2   181     11.8   967.4    0.00     895    113.3
 248   11:50   98.8     9    5.8   179     12.7   967.3    0.00     893    114.0
 248   12:00   98.7     9    9.1   214     13.7   967.2    0.00     888    113.3
 248   12:10   99.0     9    8.4   204     13.8   967.1    0.00     880    113.6
 248   12:20   99.2     9    8.3   191     15.1   967.1    0.00     873    113.5
 248   12:30   99.5     9    8.1   186     16.9   967.0    0.00     864    113.0
 248   12:40   99.4     9    7.4   196     18.0   966.8    0.00     854    111.8
 248   12:50   99.9     9    9.3   208     15.9   966.7    0.00     842    110.0
 248   13:00  100.0     9    9.3   203     15.6   966.5    0.00     827    109.6
 248   13:10  100.1     9   10.0   189     19.2   966.4    0.00     811    109.3
 248   13:20  100.3     9    7.8   171     14.5   966.3    0.00     794    109.9
 248   13:30  101.2     9    9.7   194     23.9   966.2    0.00     777    109.7
 248   13:40  100.7     9   11.8   192     22.7   966.2    0.00     755    109.7
 248   13:50  101.0     9    8.7   197     17.6   966.1    0.00     735    109.3
 248   14:00  101.0     9   11.2   197     20.0   966.1    0.00     712    109.1
 248   14:10  101.0     9   10.2   176     22.4   966.1    0.00     687    109.0
 248   14:20  101.2     9    8.6   197     16.4   966.0    0.00     663    108.4
 248   14:30  101.2     9   10.7   197     20.4   965.9    0.00     637    108.2
 248   14:40  101.3     9    9.3   208     20.5   965.7    0.00     608    107.7
 248   14:50  101.7     9    8.8   178     19.0   965.6    0.00     578    108.0
 248   15:00  101.6    10    8.6   160     16.5   965.6    0.00     539    107.3
 248   15:10  101.5    10    8.2   166     15.3   965.5    0.00     506    107.0
 248   15:20  101.5    10   10.7   175     18.5   965.4    0.00     489    106.9
 248   15:30  101.4    10   12.9   183     26.2   965.2    0.00     450    106.6
 248   15:40  101.6    10    8.2   175     15.9   965.2    0.00     425    106.3
 248   15:50  101.8    10   10.3   184     21.3   965.1    0.00     384    106.1
 248   16:00  101.6    10    7.7   176     16.5   965.1    0.00     182    105.7
 248   16:10  101.4    11    8.2   167     18.9   965.1    0.00      75    105.1
 248   16:20  101.5    10    9.4   181     19.3   965.1    0.00     285    105.1
 248   16:30  101.2    10    7.7   182     16.6   965.1    0.00     258    104.7
 248   16:40  100.4    11   10.0   166     21.5   965.1    0.00     225    104.2
 248   16:50  100.1    12    9.2   161     16.9   965.0    0.00     193    103.5
 248   17:00  100.2    11    7.0   191     11.5   965.0    0.00     162    103.2
 248   17:10  100.3    10    8.4   187     14.7   965.0    0.00     103    102.9
 248   17:20   99.9    11    8.4   182     14.1   965.0    0.00      89    102.5
 248   17:30   99.6    11    7.3   195     15.0   964.9    0.00      79    101.8
 248   17:40   99.2    11    7.5   200     13.1   964.8    0.00      45    101.2
 248   17:50   98.7    10    4.0   231      7.0   964.7    0.00      13    100.4
 248   18:00   98.1    10    4.8   228      9.1   964.6    0.00       7    99.8
 248   18:10   97.7    11    5.5   220      9.7   964.4    0.00       3    99.3
 248   18:20   97.3    11    5.7   207     12.4   964.4    0.00       1    98.9
 248   18:30   96.8    11    5.6   200     11.1   964.4    0.00       0    98.5
 248   18:40   96.5    11    5.3   220     10.0   964.4    0.00       0    98.0
 248   18:50   96.3    12    6.8   225     10.6   964.4    0.00       0    97.7
 248   19:00   96.1    12    5.8   219     10.4   964.5    0.00       0    97.3
 248   19:10   95.8    12    6.5   216     12.0   964.6    0.00       0    96.9
 248   19:20   95.3    12    5.1   209      9.4   964.7    0.00       0    96.5
 248   19:30   95.0    12    5.4   204      9.2   964.7    0.00       0    96.2
 248   19:40   94.3    13    3.4   178      6.5   964.8    0.00       0    95.8
 248   19:50   92.3    14    2.1    88      4.2   964.9    0.00       0    94.7
 248   20:00   89.9    15    1.7    80      4.5   964.9    0.00       0    94.0
 248   20:10   88.4    16    1.6    67      3.5   964.9    0.00       0    92.9
 248   20:20   87.7    17    1.1    86      3.1   965.0    0.00       0    92.8
 248   20:30   86.8    18    0.9    80      1.8   964.9    0.00       0    91.7
 248   20:40   86.0    20    1.4    92      2.4   964.9    0.00       0    91.5
 248   20:50   86.0    21    1.8    76      2.5   964.8    0.00       0    91.1
 248   21:00   83.5    25    0.7    32      2.0   964.8    0.00       0    90.0
 248   21:10   82.9    25    2.6    68      4.7   964.9    0.00       0    90.3
 248   21:20   85.0    24    3.6    88      5.3   964.8    0.00       0    90.3
 248   21:30   86.0    24    2.4   137      4.7   964.8    0.00       0    90.6
 248   21:40   86.4    24    2.5   138      5.2   964.8    0.00       0    90.5
 248   21:50   87.0    23    2.9   141      7.4   964.7    0.00       0    90.4
 248   22:00   87.2    23    2.6   128      5.0   964.8    0.00       0    90.1
 248   22:10   84.0    27    3.2    86      5.0   964.9    0.00       0    89.0
 248   22:20   83.2    29    3.6    94      5.4   964.9    0.00       0    88.7
 248   22:30   84.3    28    2.3   109      4.3   964.9    0.00       0    88.8
 248   22:40   84.7    28    2.1   114      3.2   964.9    0.00       0    88.7
 248   22:50   84.6    28    2.5    98      3.9   964.9    0.00       0    88.6
 248   23:00   84.1    29    3.0    89      4.7   964.9    0.00       0    88.3
 248   23:10   84.1    28    3.9    82      5.8   964.9    0.00       0    88.1
 248   23:20   83.9    29    4.1    84      6.1   964.9    0.00       0    87.9
 248   23:30   83.6    29    3.2    90      5.3   964.9    0.00       0    87.6
 248   23:40   84.6    27    3.9   102      8.3   964.9    0.00       0    87.7
 248   23:50   85.8    26    2.5   120      5.2   964.9    0.00       0    87.9
 249    0:00   86.5    25    3.7   101      6.1   964.9    0.00       0    88.0
 249    0:10   85.6    26    3.7   103      6.6   965.0    0.00       0    87.7
 249    0:20   86.1    25    3.5   113      6.8   964.9    0.00       0    87.7
 249    0:30   86.0    25    2.8   119      5.6   964.9    0.00       0    87.6
 249    0:40   85.4    25    2.7   124      6.1   964.9    0.00       0    87.4
 249    0:50   84.9    26    2.5   121      5.2   964.9    0.00       0    87.1
 249    1:00   83.6    28    3.2    96      5.8   964.7    0.00       0    86.7
 249    1:10   82.0    30    3.3   100      5.2   964.6    0.00       0    86.1

Return to Overton, Nevada graphs page.


Western Regional Climate Center,wrcc@dri.edu